createdAt,value
2023-03-27T00:00:40.754Z,87.63
2023-03-27T00:03:29.224Z,87.93
2023-03-27T00:06:30.870Z,87.63
2023-03-27T00:09:17.733Z,87.62
2023-03-27T00:12:04.579Z,87.72
2023-03-27T00:14:51.693Z,87.24
2023-03-27T00:17:38.645Z,87.83
2023-03-27T00:20:25.866Z,87.44
2023-03-27T00:23:19.785Z,87.50
2023-03-27T00:26:10.423Z,87.56
2023-03-27T00:28:57.719Z,88.08
2023-03-27T00:31:44.647Z,87.31
2023-03-27T00:34:31.628Z,87.15
2023-03-27T00:37:18.712Z,87.40
2023-03-27T00:40:05.757Z,87.34
2023-03-27T00:42:52.663Z,87.38
2023-03-27T00:45:46.482Z,87.31
2023-03-27T00:48:34.410Z,87.33
2023-03-27T00:51:22.483Z,87.43
2023-03-27T00:54:11.374Z,87.49
2023-03-27T00:56:58.804Z,87.23
2023-03-27T00:59:51.530Z,87.35
2023-03-27T01:02:39.327Z,87.61
2023-03-27T01:05:28.002Z,87.14
2023-03-27T01:08:15.807Z,87.54
2023-03-27T01:11:44.100Z,87.28
2023-03-27T01:15:02.139Z,87.36
2023-03-27T01:18:17.845Z,87.09
2023-03-27T01:21:49.627Z,87.14
2023-03-27T01:24:42.586Z,87.50
2023-03-27T01:28:11.253Z,86.95
2023-03-27T01:31:04.019Z,87.13
2023-03-27T01:34:09.721Z,86.70
2023-03-27T01:36:56.658Z,87.03
2023-03-27T01:39:49.498Z,87.48
2023-03-27T01:42:50.555Z,86.82
2023-03-27T01:45:43.929Z,86.95
2023-03-27T01:48:49.162Z,87.26
2023-03-27T01:51:56.376Z,87.26
2023-03-27T01:54:51.589Z,87.27
2023-03-27T01:57:53.214Z,87.00
2023-03-27T02:00:52.037Z,86.60
2023-03-27T02:04:01.014Z,87.41
2023-03-27T02:06:50.993Z,87.37
2023-03-27T02:09:58.027Z,86.68
2023-03-27T02:12:52.597Z,87.14
2023-03-27T02:15:41.968Z,86.92
2023-03-27T02:18:54.213Z,86.82
2023-03-27T02:21:41.227Z,87.21
2023-03-27T02:24:28.123Z,87.20
2023-03-27T02:27:41.626Z,86.81
2023-03-27T02:30:47.049Z,87.12
2023-03-27T02:34:13.571Z,86.41
2023-03-27T02:37:24.974Z,86.67
2023-03-27T02:41:08.499Z,86.82
2023-03-27T02:44:30.559Z,87.17
2023-03-27T02:47:21.302Z,86.80
2023-03-27T02:50:16.135Z,86.95
2023-03-27T02:53:06.984Z,87.13
2023-03-27T02:56:06.144Z,86.96
2023-03-27T02:59:04.210Z,86.72
2023-03-27T03:01:58.434Z,86.25
2023-03-27T03:04:59.648Z,87.22
2023-03-27T03:07:49.532Z,86.74
2023-03-27T03:10:37.086Z,86.98
2023-03-27T03:13:23.962Z,86.20
2023-03-27T03:16:11.237Z,87.02
2023-03-27T03:19:00.041Z,86.68
2023-03-27T03:21:47.011Z,86.78
2023-03-27T03:24:33.886Z,86.65
2023-03-27T03:27:21.350Z,87.10
2023-03-27T03:30:31.689Z,86.89
2023-03-27T03:33:25.182Z,86.81
2023-03-27T03:36:12.158Z,86.95
2023-03-27T03:38:59.690Z,86.75
2023-03-27T03:41:46.613Z,86.35
2023-03-27T03:44:33.548Z,87.12
2023-03-27T03:47:28.839Z,86.65
2023-03-27T03:50:15.761Z,86.58
2023-03-27T03:53:02.728Z,86.02
2023-03-27T03:55:50.061Z,86.62
2023-03-27T03:58:37.114Z,86.42
2023-03-27T04:01:25.276Z,86.23
2023-03-27T04:04:17.049Z,86.63
2023-03-27T04:07:24.151Z,86.80
2023-03-27T04:10:14.520Z,85.92
2023-03-27T04:13:06.009Z,86.08
2023-03-27T04:15:57.471Z,86.50
2023-03-27T04:18:51.045Z,86.25
2023-03-27T04:21:40.147Z,86.52
2023-03-27T04:24:27.216Z,86.13
2023-03-27T04:27:14.129Z,86.67
2023-03-27T04:30:44.108Z,86.20
2023-03-27T04:34:06.484Z,86.53
2023-03-27T04:37:24.167Z,86.11
2023-03-27T04:40:44.099Z,86.31
2023-03-27T04:43:32.902Z,85.87
2023-03-27T04:46:20.107Z,86.42
2023-03-27T04:49:12.636Z,86.30
2023-03-27T04:52:07.551Z,85.93
2023-03-27T04:54:55.429Z,86.40
2023-03-27T04:57:45.043Z,86.32
2023-03-27T05:00:38.834Z,86.40
2023-03-27T05:03:48.900Z,86.31
2023-03-27T05:06:43.700Z,86.23
2023-03-27T05:09:35.042Z,86.50
2023-03-27T05:12:22.140Z,86.29
2023-03-27T05:15:12.618Z,85.66
2023-03-27T05:18:04.995Z,85.67
2023-03-27T05:20:52.017Z,86.38
2023-03-27T05:23:38.939Z,86.02
2023-03-27T05:26:27.026Z,86.14
2023-03-27T05:29:17.476Z,86.33
2023-03-27T05:32:06.623Z,86.17
2023-03-27T05:35:02.527Z,86.02
2023-03-27T05:37:55.960Z,86.53
2023-03-27T05:41:05.414Z,86.16
2023-03-27T05:43:56.010Z,86.00
2023-03-27T05:46:43.725Z,86.30
2023-03-27T05:49:37.273Z,86.13
2023-03-27T05:52:31.561Z,86.30
2023-03-27T05:55:18.548Z,86.74
2023-03-27T05:58:05.611Z,86.58
2023-03-27T06:00:52.604Z,86.01
2023-03-27T06:03:41.375Z,85.87
2023-03-27T06:06:35.889Z,85.78
2023-03-27T06:09:23.336Z,86.71
2023-03-27T06:12:29.183Z,86.50
2023-03-27T06:15:25.824Z,85.84
2023-03-27T06:18:35.978Z,86.14
2023-03-27T06:21:23.629Z,86.05
2023-03-27T06:24:17.363Z,86.49
2023-03-27T06:27:04.466Z,85.91
2023-03-27T06:29:54.569Z,86.14
2023-03-27T06:32:41.648Z,86.33
2023-03-27T06:35:31.203Z,86.60
2023-03-27T06:38:31.105Z,86.09
2023-03-27T06:41:18.715Z,86.20
2023-03-27T06:44:24.636Z,86.08
2023-03-27T06:47:34.582Z,86.47
2023-03-27T06:50:53.526Z,86.49
2023-03-27T06:53:40.851Z,86.24
2023-03-27T06:56:28.468Z,86.42
2023-03-27T06:59:47.677Z,86.16
2023-03-27T07:02:40.164Z,85.92
2023-03-27T07:05:27.847Z,86.57
2023-03-27T07:08:23.328Z,86.38
2023-03-27T07:11:15.284Z,86.35
2023-03-27T07:14:13.878Z,86.37
2023-03-27T07:17:00.953Z,85.91
2023-03-27T07:20:00.265Z,86.51
2023-03-27T07:22:48.048Z,86.19
2023-03-27T07:26:00.895Z,86.22
2023-03-27T07:29:10.605Z,86.38
2023-03-27T07:32:01.554Z,86.13
2023-03-27T07:34:59.446Z,86.64
2023-03-27T07:38:05.862Z,86.32
2023-03-27T07:40:55.702Z,86.49
2023-03-27T07:43:48.533Z,86.51
2023-03-27T07:46:35.584Z,86.75
2023-03-27T07:49:40.187Z,86.83
2023-03-27T07:52:32.963Z,86.55
2023-03-27T07:55:24.177Z,86.36
2023-03-27T07:58:20.537Z,86.82
2023-03-27T08:01:09.364Z,86.42
2023-03-27T08:03:56.569Z,86.34
2023-03-27T08:06:44.105Z,86.70
2023-03-27T08:09:37.715Z,86.43
2023-03-27T08:12:25.263Z,86.49
2023-03-27T08:15:18.111Z,86.50
2023-03-27T08:18:05.853Z,86.12
2023-03-27T08:20:52.757Z,86.26
2023-03-27T08:23:42.297Z,86.19
2023-03-27T08:26:58.808Z,86.42
2023-03-27T08:29:46.474Z,86.56
2023-03-27T08:32:33.644Z,85.91
2023-03-27T08:35:26.408Z,86.10
2023-03-27T08:38:25.824Z,86.04
2023-03-27T08:41:25.918Z,85.82
2023-03-27T08:44:23.542Z,86.34
2023-03-27T08:47:31.174Z,86.01
2023-03-27T08:50:35.473Z,86.05
2023-03-27T08:54:10.580Z,85.67
2023-03-27T08:56:57.613Z,85.86
2023-03-27T08:59:48.510Z,85.75
2023-03-27T09:03:10.292Z,86.07
2023-03-27T09:06:07.253Z,85.99
2023-03-27T09:09:13.093Z,85.73
2023-03-27T09:12:10.451Z,85.36
2023-03-27T09:15:54.591Z,85.85
2023-03-27T09:18:46.444Z,85.46
2023-03-27T09:21:51.366Z,85.93
2023-03-27T09:25:01.118Z,85.53
2023-03-27T09:28:32.959Z,85.07
2023-03-27T09:32:06.261Z,85.29
2023-03-27T09:34:55.698Z,85.13
2023-03-27T09:37:42.600Z,85.80
2023-03-27T09:40:41.893Z,85.32
2023-03-27T09:43:36.460Z,85.88
2023-03-27T09:46:24.373Z,85.69
2023-03-27T09:49:24.962Z,85.88
2023-03-27T09:52:16.226Z,85.02
2023-03-27T09:55:15.514Z,84.50
2023-03-27T09:58:03.279Z,85.25
2023-03-27T10:00:54.954Z,84.61
2023-03-27T10:03:42.092Z,85.00
2023-03-27T10:06:33.972Z,85.86
2023-03-27T10:09:41.548Z,85.85
2023-03-27T10:12:39.374Z,85.81
2023-03-27T10:15:50.110Z,85.55
2023-03-27T10:18:47.971Z,85.55
2023-03-27T10:21:45.801Z,84.91
2023-03-27T10:25:07.388Z,85.00
2023-03-27T10:28:12.972Z,85.58
2023-03-27T10:31:22.726Z,84.80
2023-03-27T10:34:14.694Z,85.55
2023-03-27T10:38:00.400Z,85.69
2023-03-27T17:58:34.554Z,79.47
2023-03-27T18:01:12.681Z,80.13
2023-03-27T18:03:39.938Z,79.53
2023-03-27T18:06:07.079Z,80.24
2023-03-27T18:08:34.359Z,80.06
2023-03-27T18:11:01.586Z,79.20
2023-03-27T18:13:30.108Z,79.80
2023-03-27T18:15:58.368Z,79.53
2023-03-27T18:18:26.054Z,78.58
2023-03-27T18:20:53.903Z,78.95
2023-03-27T18:23:22.004Z,79.30
2023-03-27T18:25:49.082Z,79.41
2023-03-27T18:28:16.411Z,79.34
2023-03-27T18:30:44.262Z,79.09
2023-03-27T18:33:11.691Z,77.90
2023-03-27T18:35:38.951Z,78.11
2023-03-27T18:38:06.265Z,77.46
2023-03-27T18:40:33.608Z,77.66
2023-03-27T18:43:00.969Z,78.56
2023-03-27T18:45:27.949Z,77.89
2023-03-27T18:47:54.972Z,78.38
2023-03-27T18:50:21.865Z,71.98
2023-03-27T18:52:48.699Z,74.08
2023-03-27T18:55:15.992Z,71.84
2023-03-27T18:57:42.980Z,73.38
2023-03-27T19:00:17.605Z,73.89
2023-03-27T19:02:45.492Z,74.09
2023-03-27T19:05:13.134Z,74.71
2023-03-27T19:07:59.913Z,75.73
2023-03-27T19:10:46.739Z,74.81
2023-03-27T19:13:37.443Z,74.64
2023-03-27T19:16:56.632Z,75.65
2023-03-27T19:20:03.783Z,75.55
2023-03-27T19:22:54.552Z,75.60
2023-03-27T19:25:47.997Z,76.55
2023-03-27T19:28:35.728Z,75.48
2023-03-27T19:31:26.973Z,76.31
2023-03-27T19:34:13.911Z,75.92
2023-03-27T19:37:00.693Z,76.08
2023-03-27T19:39:47.796Z,76.78
2023-03-27T19:42:34.795Z,75.85
2023-03-27T19:45:21.703Z,75.54
2023-03-27T19:48:08.646Z,76.44
2023-03-27T19:50:55.904Z,75.80
2023-03-27T19:53:43.073Z,76.28
2023-03-27T19:56:29.958Z,76.61
2023-03-27T19:59:29.903Z,75.56
2023-03-27T20:02:17.510Z,76.82
2023-03-27T20:05:04.549Z,76.35
2023-03-27T20:07:51.405Z,76.29
2023-03-27T20:10:38.313Z,75.99
2023-03-27T20:13:25.164Z,76.92
2023-03-27T20:16:12.904Z,76.29
2023-03-27T20:19:01.357Z,75.66
2023-03-27T20:21:48.780Z,76.33
2023-03-27T20:24:36.102Z,76.99
2023-03-27T20:27:23.033Z,76.49
2023-03-27T20:30:09.927Z,75.89
2023-03-27T20:32:56.817Z,75.75
2023-03-27T20:35:44.558Z,76.92
2023-03-27T20:38:31.750Z,76.63
2023-03-27T20:41:19.131Z,76.48
2023-03-27T20:44:05.989Z,76.16
2023-03-27T20:46:54.544Z,76.47
2023-03-27T20:49:45.351Z,76.30
2023-03-27T20:52:35.575Z,76.93
2023-03-27T20:55:32.902Z,76.57
2023-03-27T20:58:23.015Z,77.14
2023-03-27T21:01:11.357Z,76.50
2023-03-27T21:04:00.446Z,76.37
2023-03-27T21:06:47.370Z,76.27
2023-03-27T21:09:34.244Z,77.05
2023-03-27T21:12:21.218Z,76.60
2023-03-27T21:15:08.102Z,76.26
2023-03-27T21:17:55.062Z,76.94
2023-03-27T21:20:45.873Z,76.47
2023-03-27T21:23:32.665Z,76.33
2023-03-27T21:26:19.692Z,76.89
2023-03-27T21:29:06.590Z,77.04
2023-03-27T21:31:53.524Z,76.23
2023-03-27T21:34:40.481Z,76.41
2023-03-27T21:37:27.444Z,77.00
2023-03-27T21:40:14.274Z,75.91
2023-03-27T21:43:01.309Z,76.90
2023-03-27T21:45:48.192Z,76.04
2023-03-27T21:48:35.596Z,76.01
2023-03-27T21:51:25.519Z,76.80
2023-03-27T21:54:12.702Z,76.25
2023-03-27T21:56:59.622Z,76.17
2023-03-27T21:59:46.844Z,76.97
2023-03-27T22:02:33.774Z,76.33
2023-03-27T22:05:20.710Z,76.98
2023-03-27T22:08:07.732Z,76.03
2023-03-27T22:10:55.244Z,76.43
2023-03-27T22:13:42.045Z,76.59
2023-03-27T22:16:32.307Z,76.81
2023-03-27T22:19:19.198Z,76.24
2023-03-27T22:22:06.257Z,76.46
2023-03-27T22:24:53.874Z,76.05
2023-03-27T22:27:40.913Z,76.41
2023-03-27T22:30:28.232Z,76.53
2023-03-27T22:33:15.257Z,76.64
2023-03-27T22:36:08.243Z,76.63
2023-03-27T22:38:56.002Z,76.54
2023-03-27T22:41:42.979Z,76.54
2023-03-27T22:44:29.870Z,76.62
2023-03-27T22:47:18.272Z,76.61
2023-03-27T22:50:05.299Z,76.06
2023-03-27T22:52:52.249Z,76.11
2023-03-27T22:55:39.212Z,76.37
2023-03-27T22:58:26.556Z,76.50
2023-03-27T23:01:14.932Z,76.57
2023-03-27T23:04:02.002Z,77.18
2023-03-27T23:06:49.033Z,76.87
2023-03-27T23:09:36.140Z,76.92
2023-03-27T23:12:23.213Z,76.63
2023-03-27T23:15:10.161Z,77.22
2023-03-27T23:17:57.067Z,76.45
2023-03-27T23:20:43.990Z,76.98
2023-03-27T23:23:31.035Z,76.97
2023-03-27T23:26:18.638Z,76.30
2023-03-27T23:29:05.512Z,76.60
2023-03-27T23:31:52.516Z,76.61
2023-03-27T23:34:39.555Z,77.13
2023-03-27T23:37:26.387Z,77.11
2023-03-27T23:40:13.267Z,77.05
2023-03-27T23:43:00.222Z,76.57
2023-03-27T23:45:47.091Z,77.26
2023-03-27T23:48:34.093Z,76.95
2023-03-27T23:51:21.049Z,77.01
2023-03-27T23:54:07.943Z,77.29
2023-03-27T23:56:54.919Z,77.19
2023-03-27T23:59:41.803Z,76.84
